createdAt,value
2019-03-01T00:01:47.998Z,9.50
2019-03-01T00:04:54.533Z,9.30
2019-03-01T00:08:06.326Z,9.30
2019-03-01T00:11:24.765Z,9.30
2019-03-01T00:14:43.281Z,9.30
2019-03-01T00:17:55.654Z,9.20
2019-03-01T00:21:17.587Z,9.20
2019-03-01T00:24:35.909Z,9.20
2019-03-01T00:27:57.347Z,9.20
2019-03-01T00:31:06.526Z,9.20
2019-03-01T00:34:24.298Z,9.10
2019-03-01T00:37:45.922Z,9.00
2019-03-01T00:41:18.363Z,9.00
2019-03-01T00:44:43.363Z,8.90
2019-03-01T00:47:46.820Z,8.80
2019-03-01T00:50:50.345Z,8.80
2019-03-01T00:53:53.794Z,8.80
2019-03-01T00:56:57.291Z,8.90
2019-03-01T01:00:00.758Z,8.90
2019-03-01T01:03:04.426Z,8.90
2019-03-01T01:06:07.883Z,8.80
2019-03-01T01:09:11.349Z,8.80
2019-03-01T01:12:14.892Z,8.80
2019-03-01T01:15:18.410Z,8.80
2019-03-01T01:18:21.877Z,8.80
2019-03-01T01:21:25.398Z,8.70
2019-03-01T01:24:28.865Z,8.70
2019-03-01T01:27:32.331Z,8.60
2019-03-01T01:30:35.790Z,8.60
2019-03-01T01:33:39.262Z,8.60
2019-03-01T01:36:42.701Z,8.70
2019-03-01T01:39:46.165Z,8.70
2019-03-01T01:42:49.627Z,8.60
2019-03-01T01:45:53.094Z,8.70
2019-03-01T01:48:56.544Z,8.70
2019-03-01T01:52:00.010Z,8.60
2019-03-01T01:55:04.333Z,8.70
2019-03-01T01:58:07.789Z,8.60
2019-03-01T02:01:11.322Z,8.70
2019-03-01T02:04:14.775Z,8.60
2019-03-01T02:07:18.261Z,8.70
2019-03-01T02:10:22.035Z,8.70
2019-03-01T02:13:25.477Z,8.70
2019-03-01T02:16:28.945Z,8.70
2019-03-01T02:19:32.406Z,8.70
2019-03-01T02:22:35.840Z,8.70
2019-03-01T02:25:39.317Z,8.70
2019-03-01T02:28:42.756Z,8.70
2019-03-01T02:31:49.973Z,8.70
2019-03-01T02:34:53.426Z,8.70
2019-03-01T02:37:56.885Z,8.60
2019-03-01T02:41:00.349Z,8.60
2019-03-01T02:44:03.897Z,8.60
2019-03-01T02:47:07.356Z,8.50
2019-03-01T02:50:13.033Z,8.60
2019-03-01T02:53:16.468Z,8.60
2019-03-01T02:56:19.924Z,8.60
2019-03-01T02:59:23.385Z,8.60
2019-03-01T03:02:26.850Z,8.50
2019-03-01T03:05:30.329Z,8.50
2019-03-01T03:08:33.834Z,8.50
2019-03-01T03:11:37.290Z,8.40
2019-03-01T03:14:40.765Z,8.40
2019-03-01T03:17:44.337Z,8.20
2019-03-01T03:20:47.814Z,8.20
2019-03-01T03:23:51.269Z,8.10
2019-03-01T03:26:54.791Z,8.20
2019-03-01T03:29:58.246Z,8.10
2019-03-01T03:33:01.721Z,8.20
2019-03-01T03:36:05.268Z,8.10
2019-03-01T03:39:11.614Z,8.10
2019-03-01T03:42:15.105Z,8.10
2019-03-01T03:45:19.246Z,8.20
2019-03-01T03:48:22.730Z,8.20
2019-03-01T03:51:26.218Z,8.20
2019-03-01T03:54:29.756Z,8.20
2019-03-01T03:57:33.215Z,8.20
2019-03-01T04:00:36.698Z,8.30
2019-03-01T04:03:40.222Z,8.40
2019-03-01T04:06:43.666Z,8.40
2019-03-01T04:09:47.157Z,8.40
2019-03-01T04:12:50.626Z,8.40
2019-03-01T04:15:54.063Z,8.40
2019-03-01T04:18:57.529Z,8.40
2019-03-01T04:22:00.989Z,8.40
2019-03-01T04:25:04.700Z,8.40
2019-03-01T04:28:08.159Z,8.50
2019-03-01T04:31:11.617Z,8.40
2019-03-01T04:34:15.065Z,8.40
2019-03-01T04:37:18.528Z,8.40
2019-03-01T04:40:21.990Z,8.40
2019-03-01T04:43:25.434Z,8.40
2019-03-01T04:46:28.904Z,8.40
2019-03-01T04:49:32.401Z,8.40
2019-03-01T04:52:36.343Z,8.30
2019-03-01T04:55:39.786Z,8.40
2019-03-01T04:58:43.245Z,8.40
2019-03-01T05:01:46.707Z,8.30
2019-03-01T05:04:50.226Z,8.30
2019-03-01T05:07:53.685Z,8.30
2019-03-01T05:10:57.154Z,8.20
2019-03-01T05:14:00.589Z,8.20
2019-03-01T05:17:04.051Z,8.20
2019-03-01T05:20:07.976Z,8.30
2019-03-01T05:23:11.459Z,8.30
2019-03-01T05:26:14.910Z,8.20
2019-03-01T05:29:18.374Z,8.20
2019-03-01T05:32:21.833Z,8.30
2019-03-01T05:35:25.290Z,8.30
2019-03-01T05:38:28.753Z,8.20
2019-03-01T05:41:32.214Z,8.20
2019-03-01T05:44:35.683Z,8.20
2019-03-01T05:47:39.153Z,8.30
2019-03-01T05:50:42.673Z,8.30
2019-03-01T05:53:46.142Z,8.30
2019-03-01T05:56:49.629Z,8.30
2019-03-01T05:59:53.134Z,8.40
2019-03-01T06:03:02.441Z,8.40
2019-03-01T06:06:05.877Z,8.40
2019-03-01T06:09:21.186Z,8.40
2019-03-01T06:12:45.877Z,8.40
2019-03-01T06:15:55.366Z,8.40
2019-03-01T06:19:07.555Z,8.30
2019-03-01T06:22:26.273Z,8.30
2019-03-01T06:25:38.518Z,8.30
2019-03-01T06:28:45.072Z,8.10
2019-03-01T06:32:00.338Z,8.10
2019-03-01T06:35:29.265Z,8.10
2019-03-01T06:39:13.719Z,8.20
2019-03-01T06:42:34.757Z,8.20
2019-03-01T06:45:43.977Z,8.30
2019-03-01T06:48:49.081Z,8.30
2019-03-01T06:51:52.546Z,8.30
2019-03-01T06:54:56.013Z,8.30
2019-03-01T06:57:59.471Z,8.30
2019-03-01T07:01:04.578Z,8.30
2019-03-01T07:04:09.655Z,8.30
2019-03-01T07:07:13.118Z,8.30
2019-03-01T07:10:16.642Z,8.30
2019-03-01T07:13:20.105Z,8.40
2019-03-01T07:16:23.550Z,8.40
2019-03-01T07:19:27.010Z,8.50
2019-03-01T07:22:30.484Z,8.50
2019-03-01T07:25:34.013Z,8.50
2019-03-01T07:28:37.458Z,8.50
2019-03-01T07:31:40.926Z,8.50
2019-03-01T07:34:44.390Z,8.40
2019-03-01T07:37:47.849Z,8.30
2019-03-01T07:40:52.285Z,8.20
2019-03-01T07:43:55.734Z,8.30
2019-03-01T07:46:59.185Z,8.40
2019-03-01T07:50:02.914Z,8.60
2019-03-01T07:53:06.373Z,8.70
2019-03-01T07:56:09.863Z,8.80
2019-03-01T07:59:13.315Z,8.80
2019-03-01T08:02:16.775Z,8.70
2019-03-01T08:05:35.598Z,8.80
2019-03-01T08:08:38.966Z,8.80
2019-03-01T08:11:43.030Z,8.80
2019-03-01T08:14:46.470Z,8.70
2019-03-01T08:17:49.922Z,8.70
2019-03-01T08:20:53.434Z,8.70
2019-03-01T08:23:56.931Z,8.70
2019-03-01T08:27:00.374Z,8.70
2019-03-01T08:30:06.951Z,8.70
2019-03-01T08:33:11.170Z,8.70
2019-03-01T08:36:14.631Z,8.70
2019-03-01T08:39:18.077Z,8.70
2019-03-01T08:42:21.562Z,8.60
2019-03-01T08:45:25.014Z,8.60
2019-03-01T08:48:30.554Z,8.60
2019-03-01T08:51:34.551Z,8.70
2019-03-01T08:54:38.009Z,8.80
2019-03-01T08:57:44.590Z,8.80
2019-03-01T09:00:48.335Z,8.90
2019-03-01T09:04:09.456Z,8.90
2019-03-01T09:07:12.957Z,8.90
2019-03-01T09:10:17.600Z,9.00
2019-03-01T09:13:21.033Z,8.90
2019-03-01T09:16:24.499Z,9.00
2019-03-01T09:19:27.972Z,9.20
2019-03-01T09:22:33.655Z,9.20
2019-03-01T09:25:36.690Z,9.30
2019-03-01T09:28:40.131Z,9.40
2019-03-01T09:31:43.597Z,9.30
2019-03-01T09:34:48.681Z,9.20
2019-03-01T09:37:52.209Z,9.20
2019-03-01T09:40:57.372Z,9.20
2019-03-01T09:44:03.023Z,9.20
2019-03-01T09:47:06.057Z,9.20
2019-03-01T09:50:11.341Z,9.20
2019-03-01T09:53:14.818Z,9.20
2019-03-01T09:56:18.254Z,9.20
2019-03-01T09:59:21.713Z,9.20
2019-03-01T10:02:25.249Z,9.30
2019-03-01T10:05:28.730Z,9.40
2019-03-01T10:08:45.141Z,9.50
2019-03-01T10:11:48.598Z,9.50
2019-03-01T10:14:52.042Z,9.40
2019-03-01T10:17:55.510Z,9.40
2019-03-01T10:20:58.953Z,9.60
2019-03-01T10:24:02.425Z,9.70
2019-03-01T10:27:05.897Z,9.60
2019-03-01T10:30:17.450Z,9.50
2019-03-01T10:33:20.906Z,9.40
2019-03-01T10:36:24.386Z,9.50
2019-03-01T10:39:27.905Z,9.50
2019-03-01T10:42:31.385Z,9.60
2019-03-01T10:45:34.830Z,9.60
2019-03-01T10:48:38.290Z,9.50
2019-03-01T10:51:41.759Z,9.50
2019-03-01T10:54:45.208Z,9.30
2019-03-01T10:57:49.046Z,9.30
2019-03-01T11:00:52.542Z,9.30
2019-03-01T11:03:56.002Z,9.30
2019-03-01T11:06:59.462Z,9.40
2019-03-01T11:10:04.162Z,9.50
2019-03-01T11:13:13.069Z,9.70
2019-03-01T11:16:16.585Z,10.20
2019-03-01T11:19:20.090Z,10.80
2019-03-01T11:22:23.627Z,11.20
2019-03-01T11:25:27.104Z,11.30
2019-03-01T11:28:30.561Z,11.10
2019-03-01T11:31:34.037Z,10.80
2019-03-01T11:34:37.482Z,10.70
2019-03-01T11:37:41.120Z,10.60
2019-03-01T11:40:44.581Z,10.40
2019-03-01T11:43:48.059Z,10.30
2019-03-01T11:46:51.506Z,10.40
2019-03-01T11:49:54.978Z,10.60
2019-03-01T11:52:58.451Z,10.80
2019-03-01T11:56:01.911Z,10.90
2019-03-01T11:59:05.354Z,10.80
2019-03-01T12:02:08.829Z,10.80
2019-03-01T12:05:13.139Z,10.80
2019-03-01T12:08:16.601Z,10.80
2019-03-01T12:11:20.049Z,10.70
2019-03-01T12:14:26.720Z,10.60
2019-03-01T12:17:37.398Z,10.50
2019-03-01T12:20:41.047Z,10.40
2019-03-01T12:23:45.710Z,10.30
2019-03-01T12:26:49.563Z,10.20
2019-03-01T12:29:53.311Z,10.00
2019-03-01T12:32:56.994Z,9.90
2019-03-01T12:36:00.769Z,9.90
2019-03-01T12:39:19.303Z,9.90
2019-03-01T12:42:22.776Z,9.90
2019-03-01T12:45:26.218Z,9.80
2019-03-01T12:48:29.681Z,9.60
2019-03-01T12:51:33.134Z,9.40
2019-03-01T12:54:36.661Z,9.30
2019-03-01T12:57:40.109Z,9.20
2019-03-01T13:00:43.572Z,9.10
2019-03-01T13:03:47.026Z,9.10
2019-03-01T13:06:50.487Z,9.00
2019-03-01T13:09:53.941Z,9.00
2019-03-01T13:12:58.694Z,9.10
2019-03-01T13:16:03.394Z,9.20
2019-03-01T13:19:06.862Z,9.20
2019-03-01T13:22:10.306Z,9.20
2019-03-01T13:25:15.608Z,9.40
2019-03-01T13:28:19.117Z,9.50
2019-03-01T13:31:22.564Z,9.60
2019-03-01T13:34:26.746Z,9.60
2019-03-01T13:37:30.357Z,9.60
2019-03-01T13:40:33.831Z,9.70
2019-03-01T13:43:37.274Z,9.60
2019-03-01T13:46:40.746Z,9.50
2019-03-01T13:49:44.194Z,9.50
2019-03-01T13:52:47.674Z,9.50
2019-03-01T13:55:51.109Z,9.50
2019-03-01T13:58:54.594Z,9.50
2019-03-01T14:01:58.062Z,9.50
2019-03-01T14:05:01.541Z,9.40
2019-03-01T14:08:08.964Z,9.30
2019-03-01T14:11:10.346Z,9.00
2019-03-01T14:14:13.788Z,9.00
2019-03-01T14:17:17.269Z,9.00
2019-03-01T14:20:21.666Z,8.90
2019-03-01T14:23:25.947Z,8.90
2019-03-01T14:26:29.553Z,8.90
2019-03-01T14:29:34.735Z,8.80
2019-03-01T14:32:38.353Z,8.80
2019-03-01T14:35:41.821Z,8.80
2019-03-01T14:38:45.257Z,8.80
2019-03-01T14:41:48.733Z,8.80
2019-03-01T14:45:01.986Z,8.70
2019-03-01T14:48:08.573Z,8.60
2019-03-01T14:51:11.738Z,8.50
2019-03-01T14:54:15.361Z,8.30
2019-03-01T14:57:21.642Z,8.20
2019-03-01T15:00:55.576Z,8.10
2019-03-01T15:03:59.220Z,8.00
2019-03-01T15:07:02.755Z,7.90
2019-03-01T15:10:09.302Z,7.70
2019-03-01T15:13:12.856Z,7.60
2019-03-01T15:16:16.378Z,7.50
2019-03-01T15:19:19.847Z,7.50
2019-03-01T15:22:23.280Z,7.50
2019-03-01T15:25:26.763Z,7.50
2019-03-01T15:28:45.127Z,7.30
2019-03-01T15:31:51.184Z,7.30
2019-03-01T15:34:53.769Z,7.20
2019-03-01T15:37:57.210Z,7.20
2019-03-01T15:41:03.637Z,7.10
2019-03-01T15:44:05.846Z,7.20
2019-03-01T15:47:09.314Z,7.10
2019-03-01T15:50:14.218Z,7.20
2019-03-01T15:53:17.685Z,7.10
2019-03-01T15:56:22.135Z,7.10
2019-03-01T15:59:25.670Z,7.20
2019-03-01T16:02:29.137Z,7.10
2019-03-01T16:05:34.152Z,7.00
2019-03-01T16:08:37.809Z,7.00
2019-03-01T16:11:41.273Z,7.00
2019-03-01T16:14:44.714Z,7.00
2019-03-01T16:17:48.185Z,7.00
2019-03-01T16:20:51.632Z,7.00
2019-03-01T16:23:59.071Z,6.90
2019-03-01T16:27:02.505Z,6.90
2019-03-01T16:30:09.281Z,6.80
2019-03-01T16:33:12.724Z,6.80
2019-03-01T16:36:17.833Z,6.80
2019-03-01T16:39:23.826Z,6.70
2019-03-01T16:42:26.466Z,6.70
2019-03-01T16:45:29.925Z,6.60
2019-03-01T16:48:33.364Z,6.60
2019-03-01T16:51:36.829Z,6.50
2019-03-01T16:54:40.272Z,6.60
2019-03-01T16:57:43.793Z,6.50
2019-03-01T17:00:47.233Z,6.50
2019-03-01T17:03:52.610Z,6.50
2019-03-01T17:06:55.865Z,6.50
2019-03-01T17:09:59.334Z,6.50
2019-03-01T17:13:02.782Z,6.40
2019-03-01T17:16:06.270Z,6.40
2019-03-01T17:19:09.778Z,6.30
2019-03-01T17:22:13.249Z,6.30
2019-03-01T17:25:23.494Z,6.20
2019-03-01T17:28:26.912Z,6.20
2019-03-01T17:31:30.393Z,6.20
2019-03-01T17:34:33.829Z,6.10
2019-03-01T17:37:37.333Z,6.10
2019-03-01T17:40:40.782Z,6.10
2019-03-01T17:43:44.250Z,5.90
2019-03-01T17:46:47.686Z,5.90
2019-03-01T17:49:51.167Z,5.90
2019-03-01T17:52:54.607Z,5.80
2019-03-01T17:55:58.091Z,5.80
2019-03-01T17:59:01.530Z,5.80
2019-03-01T18:02:05.005Z,5.80
2019-03-01T18:05:10.889Z,5.70
2019-03-01T18:08:14.433Z,5.70
2019-03-01T18:11:17.883Z,5.70
2019-03-01T18:14:21.361Z,5.60
2019-03-01T18:17:24.798Z,5.60
2019-03-01T18:20:28.345Z,5.60
2019-03-01T18:23:34.233Z,5.50
2019-03-01T18:26:39.822Z,5.50
2019-03-01T18:29:42.644Z,5.50
2019-03-01T18:32:46.920Z,5.50
2019-03-01T18:35:52.518Z,5.40
2019-03-01T18:38:55.546Z,5.40
2019-03-01T18:41:59.327Z,5.40
2019-03-01T18:45:15.720Z,5.30
2019-03-01T18:48:19.183Z,5.30
2019-03-01T18:51:22.625Z,5.30
2019-03-01T18:54:26.119Z,5.30
2019-03-01T18:57:29.554Z,5.20
2019-03-01T19:00:44.469Z,5.20
2019-03-01T19:03:47.936Z,5.10
2019-03-01T19:06:52.415Z,5.10
2019-03-01T19:09:56.142Z,5.10
2019-03-01T19:12:59.613Z,5.10
2019-03-01T19:16:03.074Z,5.00
2019-03-01T19:19:06.586Z,5.00
2019-03-01T19:22:10.057Z,5.00
2019-03-01T19:25:15.271Z,5.00
2019-03-01T19:28:18.790Z,4.80
2019-03-01T19:31:24.536Z,4.80
2019-03-01T19:34:27.430Z,4.80
2019-03-01T19:37:30.865Z,4.80
2019-03-01T19:40:34.337Z,4.80
2019-03-01T19:43:37.779Z,4.80
2019-03-01T19:46:41.255Z,4.80
2019-03-01T19:49:45.275Z,4.70
2019-03-01T19:52:50.693Z,4.70
2019-03-01T19:55:54.226Z,4.70
2019-03-01T19:58:59.326Z,4.70
2019-03-01T20:02:03.019Z,4.70
2019-03-01T20:05:09.702Z,4.70
2019-03-01T20:08:13.137Z,4.70
2019-03-01T20:11:16.621Z,4.80
2019-03-01T20:14:20.100Z,4.80
2019-03-01T20:17:26.478Z,4.70
2019-03-01T20:20:33.520Z,4.70
2019-03-01T20:23:35.399Z,4.70
2019-03-01T20:26:38.878Z,4.70
2019-03-01T20:29:42.314Z,4.70
2019-03-01T20:32:47.481Z,4.70
2019-03-01T20:35:51.093Z,4.70
2019-03-01T20:38:54.557Z,4.70
2019-03-01T20:41:58.002Z,4.70
2019-03-01T20:45:01.486Z,4.70
2019-03-01T20:48:05.165Z,4.70
2019-03-01T20:51:08.630Z,4.70
2019-03-01T20:54:12.075Z,4.70
2019-03-01T20:57:15.547Z,4.70
2019-03-01T21:00:27.346Z,4.70
2019-03-01T21:03:31.877Z,4.70
2019-03-01T21:06:37.394Z,4.70
2019-03-01T21:09:41.237Z,4.70
2019-03-01T21:12:44.826Z,4.70
2019-03-01T21:15:48.270Z,4.70
2019-03-01T21:18:51.731Z,4.70
2019-03-01T21:21:55.174Z,4.60
2019-03-01T21:25:03.160Z,4.60
2019-03-01T21:28:06.818Z,4.60
2019-03-01T21:31:10.281Z,4.60
2019-03-01T21:34:14.947Z,4.60
2019-03-01T21:37:18.593Z,4.60
2019-03-01T21:40:22.101Z,4.60
2019-03-01T21:43:25.566Z,4.60
2019-03-01T21:46:30.480Z,4.60
2019-03-01T21:49:34.185Z,4.50
2019-03-01T21:52:37.651Z,4.60
2019-03-01T21:55:41.189Z,4.50
2019-03-01T21:58:44.673Z,4.50
2019-03-01T22:01:48.113Z,4.50
2019-03-01T22:04:51.578Z,4.40
2019-03-01T22:07:55.019Z,4.40
2019-03-01T22:10:58.489Z,4.50
2019-03-01T22:14:01.952Z,4.50
2019-03-01T22:17:05.402Z,4.40
2019-03-01T22:20:10.509Z,4.40
2019-03-01T22:23:15.653Z,4.50
2019-03-01T22:26:19.162Z,4.40
2019-03-01T22:29:22.613Z,4.40
2019-03-01T22:32:26.080Z,4.40
2019-03-01T22:35:29.518Z,4.40
2019-03-01T22:38:33.154Z,4.40
2019-03-01T22:41:39.336Z,4.40
2019-03-01T22:44:43.717Z,4.40
2019-03-01T22:47:46.990Z,4.40
2019-03-01T22:50:50.454Z,4.40
2019-03-01T22:53:53.918Z,4.40
2019-03-01T22:56:57.365Z,4.40
2019-03-01T23:00:00.826Z,4.30
2019-03-01T23:03:04.526Z,4.30
2019-03-01T23:06:07.962Z,4.30
2019-03-01T23:09:13.082Z,4.30
2019-03-01T23:12:16.523Z,4.30
2019-03-01T23:15:19.984Z,4.40
2019-03-01T23:18:23.434Z,4.30
2019-03-01T23:21:26.894Z,4.30
2019-03-01T23:24:31.689Z,4.20
2019-03-01T23:27:35.531Z,4.30
2019-03-01T23:30:38.969Z,4.30
2019-03-01T23:33:42.443Z,4.30
2019-03-01T23:36:46.279Z,4.30
2019-03-01T23:39:49.745Z,4.20
2019-03-01T23:42:53.400Z,4.20
2019-03-01T23:45:58.375Z,4.20
2019-03-01T23:49:06.264Z,4.20
2019-03-01T23:52:07.009Z,4.20
2019-03-01T23:55:10.553Z,4.20
2019-03-01T23:58:15.879Z,4.20
